| time (UTC) | temp C | wind direction | speed KPH | gust KPH | rain 1hr cm | rain 24hr cm | rain mn cm | humidity % | barometer mb |
| 20260906221336 | 36 | 101 | 9.7 | 12.9 | 0.00 | 0.00 | 0.00 | 37 | 1011.7 |
| 20260906220831 | 36 | 87 | 12.9 | 24.1 | 0.00 | 0.00 | 0.00 | 36 | 1011.8 |
| 20260906220327 | 36 | 101 | 6.4 | 17.7 | 0.00 | 0.00 | 0.00 | 36 | 1011.7 |
| 20260906215825 | 36 | 89 | 14.5 | 19.3 | 0.00 | 0.00 | 0.00 | 36 | 1011.8 |
| 20260906215321 | 36 | 105 | 4.8 | 12.9 | 0.00 | 0.00 | 0.00 | 36 | 1011.8 |
| 20260906214818 | 36 | 118 | 8.0 | 17.7 | 0.00 | 0.00 | 0.00 | 36 | 1011.9 |
| 20260906214313 | 36 | 82 | 9.7 | 19.3 | 0.00 | 0.00 | 0.00 | 36 | 1011.9 |
| 20260906213813 | 36 | 99 | 6.4 | 17.7 | 0.00 | 0.00 | 0.00 | 37 | 1012.0 |
| 20260906213313 | 36 | 105 | 11.3 | 22.5 | 0.00 | 0.00 | 0.00 | 36 | 1012.2 |
| 20260906212810 | 36 | 117 | 17.7 | 20.9 | 0.00 | 0.00 | 0.00 | 36 | 1012.0 |
| 20260906212306 | 37 | 147 | 16.1 | 20.9 | 0.00 | 0.00 | 0.00 | 36 | 1012.0 |
| 20260906211805 | 36 | 101 | 12.9 | 17.7 | 0.00 | 0.00 | 0.00 | 36 | 1012.1 |
| 20260906211300 | 36 | 132 | 8.0 | 20.9 | 0.00 | 0.00 | 0.00 | 36 | 1012.3 |
| 20260906210756 | 36 | 124 | 9.7 | 19.3 | 0.00 | 0.00 | 0.00 | 37 | 1012.4 |
| 20260906210256 | 36 | 79 | 11.3 | 22.5 | 0.00 | 0.00 | 0.00 | 37 | 1012.5 |
| 20260906205756 | 36 | 91 | 4.8 | 16.1 | 0.00 | 0.00 | 0.00 | 37 | 1012.4 |
| 20260906205252 | 36 | 119 | 8.0 | 16.1 | 0.00 | 0.00 | 0.00 | 37 | 1012.3 |
| 20260906204748 | 36 | 104 | 9.7 | 17.7 | 0.00 | 0.00 | 0.00 | 37 | 1012.5 |
| 20260906204247 | 36 | 105 | 12.9 | 20.9 | 0.00 | 0.00 | 0.00 | 38 | 1012.5 |
| 20260906203746 | 36 | 93 | 14.5 | 22.5 | 0.00 | 0.00 | 0.00 | 37 | 1012.6 |
| 20260906203242 | 36 | 127 | 14.5 | 19.3 | 0.00 | 0.00 | 0.00 | 37 | 1012.7 |
| 20260906202738 | 36 | 79 | 9.7 | 14.5 | 0.00 | 0.00 | 0.00 | 38 | 1012.7 |
| 20260906202238 | 36 | 119 | 14.5 | 19.3 | 0.00 | 0.00 | 0.00 | 37 | 1012.6 |
| 20260906201733 | 36 | 114 | 20.9 | 20.9 | 0.00 | 0.00 | 0.00 | 37 | 1012.8 |
| 20260906201232 | 35 | 115 | 9.7 | 20.9 | 0.00 | 0.00 | 0.00 | 38 | 1012.9 |
| 20260906200728 | 36 | 100 | 11.3 | 25.7 | 0.00 | 0.00 | 0.00 | 37 | 1013.0 |
| 20260906200224 | 36 | 154 | 14.5 | 17.7 | 0.00 | 0.00 | 0.00 | 35 | 1012.9 |
| 20260906195719 | 35 | 141 | 8.0 | 11.3 | 0.00 | 0.00 | 0.00 | 38 | 1012.9 |
| 20260906195216 | 35 | 111 | 12.9 | 20.9 | 0.00 | 0.00 | 0.00 | 38 | 1012.9 |
| 20260906194711 | 35 | 94 | 8.0 | 16.1 | 0.00 | 0.00 | 0.00 | 38 | 1013.1 |
| 20260906194207 | 35 | 112 | 14.5 | 20.9 | 0.00 | 0.00 | 0.00 | 38 | 1013.2 |
| 20260906193702 | 35 | 96 | 6.4 | 24.1 | 0.00 | 0.00 | 0.00 | 38 | 1013.1 |
| 20260906193156 | 35 | 112 | 9.7 | 22.5 | 0.00 | 0.00 | 0.00 | 39 | 1012.9 |
| 20260906192652 | 36 | 84 | 17.7 | 22.5 | 0.00 | 0.00 | 0.00 | 35 | 1013.2 |
| 20260906192152 | 35 | 104 | 6.4 | 16.1 | 0.00 | 0.00 | 0.00 | 37 | 1013.2 |
| 20260906191646 | 35 | 97 | 8.0 | 9.7 | 0.00 | 0.00 | 0.00 | 39 | 1013.5 |
| 20260906191146 | 36 | 100 | 17.7 | 24.1 | 0.00 | 0.00 | 0.00 | 38 | 1013.2 |
| 20260906190640 | 35 | 124 | 17.7 | 20.9 | 0.00 | 0.00 | 0.00 | 38 | 1013.4 |
| 20260906190135 | 35 | 87 | 12.9 | 17.7 | 0.00 | 0.00 | 0.00 | 37 | 1013.5 |
| 20260906185634 | 36 | 115 | 4.8 | 9.7 | 0.00 | 0.00 | 0.00 | 36 | 1013.3 |
| 20260906185133 | 35 | 265 | 6.4 | 8.0 | 0.00 | 0.00 | 0.00 | 37 | 1013.5 |
| 20260906184628 | 35 | 97 | 9.7 | 19.3 | 0.00 | 0.00 | 0.00 | 39 | 1013.5 |
| 20260906184124 | 35 | 95 | 8.0 | 11.3 | 0.00 | 0.00 | 0.00 | 38 | 1013.6 |
| 20260906183619 | 35 | 134 | 9.7 | 25.7 | 0.00 | 0.00 | 0.00 | 37 | 1013.7 |
| 20260906183115 | 35 | 112 | 4.8 | 16.1 | 0.00 | 0.00 | 0.00 | 38 | 1013.7 |
| 20260906182610 | 35 | 120 | 11.3 | 14.5 | 0.00 | 0.00 | 0.00 | 40 | 1013.8 |
| 20260906182106 | 35 | 97 | 6.4 | 9.7 | 0.00 | 0.00 | 0.00 | 38 | 1013.9 |
| 20260906181607 | 35 | 147 | 14.5 | 17.7 | 0.00 | 0.00 | 0.00 | 39 | 1013.9 |
| 20260906181102 | 35 | 73 | 19.3 | 20.9 | 0.00 | 0.00 | 0.00 | 40 | 1014.0 |
| 20260906180557 | 35 | 108 | 9.7 | 17.7 | 0.00 | 0.00 | 0.00 | 40 | 1014.1 |
| 20260906180056 | 35 | 99 | 8.0 | 17.7 | 0.00 | 0.00 | 0.00 | 40 | 1014.1 |
| 20260906175555 | 35 | 138 | 3.2 | 11.3 | 0.00 | 0.00 | 0.00 | 40 | 1014.0 |
| 20260906175050 | 34 | 105 | 17.7 | 22.5 | 0.00 | 0.00 | 0.00 | 40 | 1014.4 |
| 20260906174548 | 34 | 116 | 8.0 | 24.1 | 0.00 | 0.00 | 0.00 | 42 | 1014.4 |
| 20260906174044 | 35 | 103 | 12.9 | 14.5 | 0.00 | 0.00 | 0.00 | 41 | 1014.6 |
| 20260906173538 | 35 | 123 | 11.3 | 17.7 | 0.00 | 0.00 | 0.00 | 43 | 1014.6 |
| 20260906173035 | 34 | 77 | 9.7 | 14.5 | 0.00 | 0.00 | 0.00 | 43 | 1014.8 |
| 20260906172528 | 35 | 104 | 14.5 | 17.7 | 0.00 | 0.00 | 0.00 | 42 | 1014.7 |
| 20260906172024 | 35 | 83 | 9.7 | 20.9 | 0.00 | 0.00 | 0.00 | 42 | 1014.9 |
| 20260906171519 | 35 | 142 | 8.0 | 19.3 | 0.00 | 0.00 | 0.00 | 41 | 1015.1 |
| 20260906171014 | 35 | 113 | 9.7 | 17.7 | 0.00 | 0.00 | 0.00 | 42 | 1015.0 |
| 20260906170510 | 34 | 117 | 11.3 | 12.9 | 0.00 | 0.00 | 0.00 | 45 | 1015.0 |
| 20260906170009 | 34 | 138 | 14.5 | 20.9 | 0.00 | 0.00 | 0.00 | 45 | 1015.3 |
| 20260906165506 | 33 | 141 | 11.3 | 12.9 | 0.00 | 0.00 | 0.00 | 46 | 1015.2 |
| 20260906165001 | 35 | 154 | 14.5 | 17.7 | 0.00 | 0.00 | 0.00 | 44 | 1015.1 |
| 20260906164500 | 34 | 124 | 16.1 | 20.9 | 0.00 | 0.00 | 0.00 | 44 | 1015.1 |
| 20260906163956 | 33 | 159 | 9.7 | 11.3 | 0.00 | 0.00 | 0.00 | 46 | 1015.2 |
| 20260906163451 | 33 | 101 | 9.7 | 14.5 | 0.00 | 0.00 | 0.00 | 47 | 1015.4 |
| 20260906162950 | 33 | 120 | 12.9 | 19.3 | 0.00 | 0.00 | 0.00 | 47 | 1015.3 |
| 20260906162448 | 33 | 150 | 8.0 | 16.1 | 0.00 | 0.00 | 0.00 | 47 | 1015.2 |
| 20260906161944 | 33 | 128 | 20.9 | 20.9 | 0.00 | 0.00 | 0.00 | 43 | 1015.0 |
| 20260906161444 | 33 | 71 | 11.3 | 12.9 | 0.00 | 0.00 | 0.00 | 47 | 1015.2 |
| 20260906160943 | 33 | 85 | 9.7 | 12.9 | 0.00 | 0.00 | 0.00 | 49 | 1015.4 |
| 20260906160436 | 33 | 77 | 8.0 | 11.3 | 0.00 | 0.00 | 0.00 | 49 | 1015.3 |
| 20260906155935 | 33 | 76 | 6.4 | 12.9 | 0.00 | 0.00 | 0.00 | 48 | 1015.3 |
| 20260906155434 | 32 | 89 | 4.8 | 8.0 | 0.00 | 0.00 | 0.00 | 51 | 1015.1 |
| 20260906154930 | 32 | 103 | 4.8 | 16.1 | 0.00 | 0.00 | 0.00 | 51 | 1015.0 |
| 20260906154425 | 33 | 74 | 8.0 | 14.5 | 0.00 | 0.00 | 0.00 | 49 | 1015.3 |
| 20260906153923 | 33 | 121 | 4.8 | 8.0 | 0.00 | 0.00 | 0.00 | 50 | 1015.1 |
| 20260906153422 | 33 | 78 | 3.2 | 9.7 | 0.00 | 0.00 | 0.00 | 51 | 1015.3 |
| 20260906152918 | 33 | 238 | 3.2 | 3.2 | 0.00 | 0.00 | 0.00 | 52 | 1015.0 |
| 20260906152413 | 33 | 93 | 4.8 | 8.0 | 0.00 | 0.00 | 0.00 | 52 | 1015.1 |
| 20260906151911 | 33 | 54 | 4.8 | 6.4 | 0.00 | 0.00 | 0.00 | 51 | 1015.4 |
| 20260906151408 | 32 | 107 | 3.2 | 6.4 | 0.00 | 0.00 | 0.00 | 54 | 1015.0 |
| 20260906150903 | 33 | 108 | 4.8 | 6.4 | 0.00 | 0.00 | 0.00 | 53 | 1014.9 |
| 20260906150358 | 32 | 154 | 3.2 | 8.0 | 0.00 | 0.00 | 0.00 | 55 | 1015.1 |
| 20260906145858 | 31 | 144 | 4.8 | 6.4 | 0.00 | 0.00 | 0.00 | 58 | 1015.0 |
| 20260906145356 | 31 | 142 | 4.8 | 8.0 | 0.00 | 0.00 | 0.00 | 57 | 1015.0 |
| 20260906144851 | 31 | 133 | 6.4 | 9.7 | 0.00 | 0.00 | 0.00 | 59 | 1014.7 |
| 20260906144346 | 31 | 111 | 3.2 | 9.7 | 0.00 | 0.00 | 0.00 | 60 | 1014.9 |
| 20260906143846 | 30 | 105 | 3.2 | 6.4 | 0.00 | 0.00 | 0.00 | 62 | 1014.9 |
| 20260906143342 | 30 | 85 | 6.4 | 6.4 | 0.00 | 0.00 | 0.00 | 61 | 1015.0 |
| 20260906142838 | 30 | 94 | 6.4 | 8.0 | 0.00 | 0.00 | 0.00 | 62 | 1014.8 |
| 20260906142333 | 30 | 126 | 4.8 | 9.7 | 0.00 | 0.00 | 0.00 | 63 | 1015.0 |
| 20260906141833 | 29 | 119 | 6.4 | 8.0 | 0.00 | 0.00 | 0.00 | 65 | 1014.9 |
| 20260906141327 | 29 | 86 | 6.4 | 8.0 | 0.00 | 0.00 | 0.00 | 66 | 1014.8 |
| 20260906140826 | 29 | 127 | 4.8 | 8.0 | 0.00 | 0.00 | 0.00 | 66 | 1015.0 |
| 20260906140321 | 28 | 173 | 4.8 | 9.7 | 0.00 | 0.00 | 0.00 | 67 | 1015.1 |
| 20260906135819 | 28 | 131 | 9.7 | 11.3 | 0.00 | 0.00 | 0.00 | 68 | 1015.0 |
| 20260906135314 | 28 | 118 | 9.7 | 11.3 | 0.00 | 0.00 | 0.00 | 69 | 1015.0 |
| 20260906134809 | 27 | 117 | 8.0 | 11.3 | 0.00 | 0.00 | 0.00 | 70 | 1015.0 |
| 20260906134304 | 27 | 106 | 4.8 | 9.7 | 0.00 | 0.00 | 0.00 | 70 | 1014.9 |
| 20260906133800 | 27 | 116 | 4.8 | 9.7 | 0.00 | 0.00 | 0.00 | 71 | 1014.8 |
| 20260906133255 | 27 | 91 | 4.8 | 9.7 | 0.00 | 0.00 | 0.00 | 72 | 1014.8 |
| 20260906132750 | 27 | 95 | 8.0 | 8.0 | 0.00 | 0.00 | 0.00 | 73 | 1014.7 |
| 20260906132246 | 26 | 97 | 9.7 | 9.7 | 0.00 | 0.00 | 0.00 | 74 | 1014.7 |
| 20260906131741 | 26 | 123 | 6.4 | 8.0 | 0.00 | 0.00 | 0.00 | 75 | 1014.9 |
| 20260906131236 | 26 | 101 | 6.4 | 6.4 | 0.00 | 0.00 | 0.00 | 76 | 1014.7 |
| 20260906130732 | 26 | 109 | 6.4 | 9.7 | 0.00 | 0.00 | 0.00 | 76 | 1014.7 |
| 20260906130227 | 26 | 84 | 6.4 | 6.4 | 0.00 | 0.00 | 0.00 | 76 | 1014.7 |
| 20260906125725 | 26 | 131 | 4.8 | 6.4 | 0.00 | 0.00 | 0.00 | 77 | 1014.7 |
| 20260906125223 | 25 | 109 | 6.4 | 6.4 | 0.00 | 0.00 | 0.00 | 78 | 1014.5 |
| 20260906124724 | 25 | 122 | 4.8 | 8.0 | 0.00 | 0.00 | 0.00 | 79 | 1014.7 |
| 20260906124220 | 25 | 94 | 4.8 | 4.8 | 0.00 | 0.00 | 0.00 | 80 | 1014.5 |
| 20260906123718 | 24 | 102 | 4.8 | 6.4 | 0.00 | 0.00 | 0.00 | 82 | 1014.4 |
| 20260906123214 | 23 | 111 | 6.4 | 6.4 | 0.00 | 0.00 | 0.00 | 85 | 1014.2 |
| 20260906122713 | 23 | 116 | 3.2 | 3.2 | 0.00 | 0.00 | 0.00 | 86 | 1014.1 |
| 20260906122208 | 23 | 115 | 1.6 | 3.2 | 0.00 | 0.00 | 0.00 | 86 | 1014.4 |
| 20260906121705 | 23 | 117 | 3.2 | 3.2 | 0.00 | 0.00 | 0.00 | 85 | 1014.2 |
| 20260906121201 | 23 | 101 | 3.2 | 4.8 | 0.00 | 0.00 | 0.00 | 85 | 1014.2 |
| 20260906120656 | 23 | 122 | 6.4 | 8.0 | 0.00 | 0.00 | 0.00 | 85 | 1014.2 |
| 20260906120153 | 23 | 133 | 6.4 | 6.4 | 0.00 | 0.00 | 0.00 | 86 | 1014.0 |
| 20260906115648 | 23 | 126 | 6.4 | 6.4 | 0.00 | 0.00 | 0.00 | 86 | 1013.9 |
| 20260906115143 | 23 | 126 | 6.4 | 6.4 | 0.00 | 0.00 | 0.00 | 87 | 1013.7 |
| 20260906114642 | 23 | 92 | 3.2 | 4.8 | 0.00 | 0.00 | 0.00 | 86 | 1013.7 |
| 20260906114137 | 23 | 127 | 6.4 | 6.4 | 0.00 | 0.00 | 0.00 | 86 | 1013.6 |
| 20260906113638 | 23 | 97 | 3.2 | 4.8 | 0.00 | 0.00 | 0.00 | 86 | 1013.7 |
| 20260906113137 | 23 | 119 | 3.2 | 4.8 | 0.00 | 0.00 | 0.00 | 85 | 1013.7 |
| 20260906112637 | 23 | 114 | 3.2 | 3.2 | 0.00 | 0.00 | 0.00 | 85 | 1013.7 |
| 20260906112134 | 23 | 104 | 1.6 | 3.2 | 0.00 | 0.00 | 0.00 | 84 | 1013.7 |
| 20260906111633 | 23 | 107 | 1.6 | 3.2 | 0.00 | 0.00 | 0.00 | 84 | 1013.6 |
| 20260906111128 | 23 | 150 | 3.2 | 4.8 | 0.00 | 0.00 | 0.00 | 84 | 1013.6 |
| 20260906110624 | 23 | 155 | 1.6 | 4.8 | 0.00 | 0.00 | 0.00 | 85 | 1013.5 |
| 20260906110124 | 24 | 159 | 3.2 | 3.2 | 0.00 | 0.00 | 0.00 | 82 | 1013.5 |
| 20260906105618 | 24 | 116 | 4.8 | 4.8 | 0.00 | 0.00 | 0.00 | 82 | 1013.5 |
| 20260906105115 | 23 | 112 | 6.4 | 6.4 | 0.00 | 0.00 | 0.00 | 83 | 1013.5 |
| 20260906104614 | 23 | 144 | 3.2 | 4.8 | 0.00 | 0.00 | 0.00 | 83 | 1013.4 |
| 20260906104108 | 23 | 152 | 3.2 | 4.8 | 0.00 | 0.00 | 0.00 | 82 | 1013.4 |
| 20260906103606 | 24 | 136 | 3.2 | 4.8 | 0.00 | 0.00 | 0.00 | 81 | 1013.5 |
| 20260906103102 | 24 | 118 | 1.6 | 4.8 | 0.00 | 0.00 | 0.00 | 81 | 1013.1 |
| 20260906102601 | 24 | 120 | 4.8 | 6.4 | 0.00 | 0.00 | 0.00 | 82 | 1013.4 |
| 20260906102057 | 24 | 137 | 4.8 | 6.4 | 0.00 | 0.00 | 0.00 | 82 | 1013.4 |
| 20260906101557 | 24 | 98 | 3.2 | 4.8 | 0.00 | 0.00 | 0.00 | 82 | 1013.5 |
| 20260906101051 | 23 | 128 | 3.2 | 4.8 | 0.00 | 0.00 | 0.00 | 83 | 1013.5 |
| 20260906100547 | 23 | 124 | 3.2 | 4.8 | 0.00 | 0.00 | 0.00 | 83 | 1013.3 |
| 20260906100048 | 23 | 146 | 3.2 | 3.2 | 0.00 | 0.00 | 0.00 | 83 | 1013.3 |
| 20260906095547 | 24 | 123 | 1.6 | 3.2 | 0.00 | 0.00 | 0.00 | 81 | 1013.4 |
| 20260906095043 | 24 | 161 | 3.2 | 3.2 | 0.00 | 0.00 | 0.00 | 80 | 1013.3 |
| 20260906094542 | 25 | 103 | 3.2 | 4.8 | 0.00 | 0.00 | 0.00 | 79 | 1013.2 |
| 20260906094038 | 25 | 122 | 6.4 | 6.4 | 0.00 | 0.00 | 0.00 | 79 | 1013.1 |
| 20260906093533 | 25 | 126 | 6.4 | 6.4 | 0.00 | 0.00 | 0.00 | 80 | 1013.2 |
| 20260906093028 | 25 | 130 | 3.2 | 4.8 | 0.00 | 0.00 | 0.00 | 80 | 1013.1 |
| 20260906092523 | 25 | 138 | 3.2 | 3.2 | 0.00 | 0.00 | 0.00 | 79 | 1013.0 |
| 20260906092018 | 25 | 111 | 3.2 | 4.8 | 0.00 | 0.00 | 0.00 | 79 | 1012.9 |
| 20260906091514 | 25 | 110 | 3.2 | 3.2 | 0.00 | 0.00 | 0.00 | 78 | 1012.8 |
| 20260906091011 | 25 | 122 | 3.2 | 4.8 | 0.00 | 0.00 | 0.00 | 76 | 1012.8 |
| 20260906090510 | 25 | 113 | 1.6 | 3.2 | 0.00 | 0.00 | 0.00 | 76 | 1012.9 |
| 20260906090011 | 26 | 121 | 4.8 | 4.8 | 0.00 | 0.00 | 0.00 | 75 | 1013.0 |
| 20260906085510 | 26 | 128 | 4.8 | 4.8 | 0.00 | 0.00 | 0.00 | 75 | 1012.8 |
| 20260906085010 | 26 | 113 | 3.2 | 3.2 | 0.00 | 0.00 | 0.00 | 75 | 1012.7 |
| 20260906084510 | 26 | 125 | 3.2 | 3.2 | 0.00 | 0.00 | 0.00 | 74 | 1012.8 |
| 20260906084009 | 26 | 181 | 3.2 | 3.2 | 0.00 | 0.00 | 0.00 | 74 | 1012.8 |
| 20260906083505 | 26 | 199 | 1.6 | 3.2 | 0.00 | 0.00 | 0.00 | 74 | 1012.8 |
| 20260906083004 | 26 | 173 | 3.2 | 4.8 | 0.00 | 0.00 | 0.00 | 74 | 1012.9 |
| 20260906082459 | 26 | 113 | 3.2 | 3.2 | 0.00 | 0.00 | 0.00 | 73 | 1012.6 |
| 20260906081955 | 26 | 132 | 4.8 | 6.4 | 0.00 | 0.00 | 0.00 | 73 | 1012.7 |
| 20260906081450 | 26 | 116 | 3.2 | 4.8 | 0.00 | 0.00 | 0.00 | 73 | 1012.8 |
| 20260906080946 | 26 | 121 | 3.2 | 6.4 | 0.00 | 0.00 | 0.00 | 72 | 1012.8 |
| 20260906080443 | 26 | 154 | 3.2 | 6.4 | 0.00 | 0.00 | 0.00 | 72 | 1013.0 |
| 20260906075943 | 27 | 119 | 4.8 | 8.0 | 0.00 | 0.00 | 0.00 | 72 | 1013.1 |
| 20260906075438 | 27 | 121 | 3.2 | 6.4 | 0.00 | 0.00 | 0.00 | 72 | 1013.3 |
| 20260906074933 | 27 | 141 | 6.4 | 8.0 | 0.00 | 0.00 | 0.00 | 71 | 1013.0 |
| 20260906074433 | 27 | 124 | 6.4 | 9.7 | 0.00 | 0.00 | 0.00 | 71 | 1013.1 |
| 20260906073931 | 27 | 128 | 3.2 | 6.4 | 0.00 | 0.00 | 0.00 | 71 | 1013.2 |
| 20260906073426 | 27 | 99 | 4.8 | 8.0 | 0.00 | 0.00 | 0.00 | 70 | 1013.2 |
| 20260906072923 | 27 | 132 | 9.7 | 9.7 | 0.00 | 0.00 | 0.00 | 70 | 1013.2 |
| 20260906072418 | 27 | 131 | 6.4 | 6.4 | 0.00 | 0.00 | 0.00 | 70 | 1013.2 |
| 20260906071914 | 27 | 120 | 4.8 | 6.4 | 0.00 | 0.00 | 0.00 | 70 | 1013.1 |
| 20260906071409 | 27 | 131 | 4.8 | 8.0 | 0.00 | 0.00 | 0.00 | 70 | 1013.1 |
| 20260906070905 | 27 | 179 | 1.6 | 11.3 | 0.00 | 0.00 | 0.00 | 70 | 1012.9 |
| 20260906070401 | 27 | 120 | 6.4 | 8.0 | 0.00 | 0.00 | 0.00 | 72 | 1013.0 |
| 20260906065856 | 26 | 120 | 3.2 | 4.8 | 0.00 | 0.00 | 0.00 | 72 | 1013.0 |
| 20260906065350 | 27 | 201 | 1.6 | 4.8 | 0.00 | 0.00 | 0.00 | 71 | 1013.1 |
| 20260906064846 | 27 | 120 | 4.8 | 8.0 | 0.00 | 0.00 | 0.00 | 71 | 1013.2 |
| 20260906064343 | 27 | 132 | 3.2 | 4.8 | 0.00 | 0.00 | 0.00 | 70 | 1013.4 |
| 20260906063842 | 27 | 123 | 3.2 | 6.4 | 0.00 | 0.00 | 0.00 | 70 | 1013.4 |
| 20260906063338 | 27 | 119 | 6.4 | 6.4 | 0.00 | 0.00 | 0.00 | 69 | 1013.2 |
| 20260906062833 | 27 | 134 | 4.8 | 8.0 | 0.00 | 0.00 | 0.00 | 68 | 1013.4 |
| 20260906062332 | 27 | 134 | 6.4 | 8.0 | 0.00 | 0.00 | 0.00 | 68 | 1013.3 |
| 20260906061827 | 27 | 142 | 3.2 | 6.4 | 0.00 | 0.00 | 0.00 | 68 | 1013.3 |
| 20260906061324 | 27 | 113 | 3.2 | 4.8 | 0.00 | 0.00 | 0.00 | 68 | 1013.2 |
| 20260906060818 | 27 | 177 | 1.6 | 3.2 | 0.00 | 0.00 | 0.00 | 68 | 1013.4 |
| 20260906060316 | 27 | 133 | 3.2 | 6.4 | 0.00 | 0.00 | 0.00 | 68 | 1013.5 |
| 20260906055812 | 27 | 129 | 3.2 | 6.4 | 0.00 | 0.00 | 0.00 | 67 | 1013.7 |
| 20260906055307 | 27 | 101 | 1.6 | 6.4 | 0.00 | 0.00 | 0.00 | 67 | 1013.7 |
| 20260906054802 | 27 | 140 | 4.8 | 6.4 | 0.00 | 0.00 | 0.00 | 67 | 1013.6 |
| 20260906054258 | 27 | 140 | 3.2 | 6.4 | 0.00 | 0.00 | 0.00 | 66 | 1013.6 |
| 20260906053754 | 27 | 121 | 4.8 | 8.0 | 0.00 | 0.00 | 0.00 | 66 | 1013.4 |
| 20260906053250 | 28 | 129 | 8.0 | 8.0 | 0.00 | 0.00 | 0.00 | 65 | 1013.8 |
| 20260906052744 | 28 | 125 | 4.8 | 6.4 | 0.00 | 0.00 | 0.00 | 65 | 1013.7 |
| 20260906052240 | 28 | 138 | 4.8 | 4.8 | 0.00 | 0.00 | 0.00 | 64 | 1013.8 |
| 20260906051738 | 28 | 128 | 4.8 | 6.4 | 0.00 | 0.00 | 0.00 | 64 | 1013.6 |
| 20260906051237 | 28 | 115 | 6.4 | 6.4 | 0.00 | 0.00 | 0.00 | 64 | 1013.5 |
| 20260906050732 | 28 | 155 | 1.6 | 3.2 | 0.00 | 0.00 | 0.00 | 63 | 1013.4 |
| 20260906050227 | 28 | 155 | 1.6 | 3.2 | 0.00 | 0.00 | 0.00 | 63 | 1013.6 |
| 20260906045726 | 28 | 135 | 3.2 | 3.2 | 0.00 | 0.00 | 0.00 | 62 | 1013.6 |
| 20260906045221 | 28 | 144 | 3.2 | 6.4 | 0.00 | 0.00 | 0.00 | 61 | 1013.5 |
| 20260906044717 | 28 | 128 | 4.8 | 4.8 | 0.00 | 0.00 | 0.00 | 61 | 1013.6 |
| 20260906044212 | 28 | 123 | 6.4 | 8.0 | 0.00 | 0.00 | 0.00 | 61 | 1013.6 |
| 20260906043708 | 28 | 133 | 6.4 | 8.0 | 0.00 | 0.00 | 0.00 | 60 | 1013.2 |
| 20260906043204 | 28 | 125 | 6.4 | 8.0 | 0.00 | 0.00 | 0.00 | 59 | 1013.4 |
| 20260906042703 | 28 | 130 | 4.8 | 6.4 | 0.00 | 0.00 | 0.00 | 59 | 1013.6 |
| 20260906042203 | 28 | 143 | 3.2 | 8.0 | 0.00 | 0.00 | 0.00 | 59 | 1013.3 |
| 20260906041658 | 28 | 114 | 6.4 | 8.0 | 0.00 | 0.00 | 0.00 | 59 | 1013.6 |
| 20260906041154 | 28 | 125 | 3.2 | 6.4 | 0.00 | 0.00 | 0.00 | 59 | 1013.4 |
| 20260906040649 | 28 | 130 | 4.8 | 6.4 | 0.00 | 0.00 | 0.00 | 59 | 1013.4 |
| 20260906040144 | 28 | 112 | 4.8 | 6.4 | 0.00 | 0.00 | 0.00 | 59 | 1013.5 |
| 20260906035645 | 28 | 134 | 3.2 | 4.8 | 0.00 | 0.00 | 0.00 | 57 | 1013.5 |
| 20260906035140 | 29 | 129 | 3.2 | 4.8 | 0.00 | 0.00 | 0.00 | 56 | 1013.4 |
| 20260906034636 | 29 | 121 | 3.2 | 3.2 | 0.00 | 0.00 | 0.00 | 55 | 1013.5 |
| 20260906034136 | 30 | 133 | 3.2 | 4.8 | 0.00 | 0.00 | 0.00 | 55 | 1013.5 |
| 20260906033631 | 30 | 135 | 3.2 | 4.8 | 0.00 | 0.00 | 0.00 | 54 | 1013.5 |
| 20260906033126 | 30 | 132 | 4.8 | 8.0 | 0.00 | 0.00 | 0.00 | 54 | 1013.2 |
| 20260906032623 | 30 | 137 | 4.8 | 6.4 | 0.00 | 0.00 | 0.00 | 53 | 1013.4 |
| 20260906032122 | 30 | 140 | 6.4 | 9.7 | 0.00 | 0.00 | 0.00 | 53 | 1013.2 |
| 20260906031618 | 30 | 131 | 4.8 | 6.4 | 0.00 | 0.00 | 0.00 | 52 | 1013.1 |
| 20260906031113 | 30 | 110 | 3.2 | 6.4 | 0.00 | 0.00 | 0.00 | 52 | 1013.2 |
| 20260906030612 | 30 | 130 | 9.7 | 9.7 | 0.00 | 0.00 | 0.00 | 52 | 1013.1 |
| 20260906030108 | 30 | 133 | 11.3 | 12.9 | 0.00 | 0.00 | 0.00 | 51 | 1013.1 |
| 20260906025607 | 30 | 123 | 6.4 | 6.4 | 0.00 | 0.00 | 0.00 | 51 | 1013.2 |
| 20260906025106 | 31 | 127 | 4.8 | 11.3 | 0.00 | 0.00 | 0.00 | 50 | 1012.9 |
| 20260906024601 | 31 | 152 | 6.4 | 9.7 | 0.00 | 0.00 | 0.00 | 50 | 1013.0 |
| 20260906024055 | 31 | 138 | 6.4 | 9.7 | 0.00 | 0.00 | 0.00 | 50 | 1012.9 |
| 20260906023551 | 31 | 126 | 6.4 | 8.0 | 0.00 | 0.00 | 0.00 | 49 | 1012.8 |
| 20260906023046 | 31 | 139 | 4.8 | 8.0 | 0.00 | 0.00 | 0.00 | 48 | 1012.8 |
| 20260906022541 | 31 | 138 | 6.4 | 8.0 | 0.00 | 0.00 | 0.00 | 48 | 1012.7 |
| 20260906022036 | 31 | 120 | 4.8 | 4.8 | 0.00 | 0.00 | 0.00 | 48 | 1012.5 |
| 20260906021532 | 31 | 135 | 3.2 | 6.4 | 0.00 | 0.00 | 0.00 | 47 | 1012.6 |
| 20260906021031 | 31 | 122 | 6.4 | 8.0 | 0.00 | 0.00 | 0.00 | 47 | 1012.6 |
| 20260906020530 | 31 | 133 | 4.8 | 6.4 | 0.00 | 0.00 | 0.00 | 46 | 1012.6 |
| 20260906020030 | 31 | 132 | 4.8 | 9.7 | 0.00 | 0.00 | 0.00 | 47 | 1012.3 |
| 20260906015530 | 31 | 154 | 3.2 | 3.2 | 0.00 | 0.00 | 0.00 | 47 | 1012.2 |
| 20260906015030 | 31 | 155 | 3.2 | 3.2 | 0.00 | 0.00 | 0.00 | 47 | 1012.1 |
| 20260906014525 | 31 | 154 | 3.2 | 3.2 | 0.00 | 0.00 | 0.00 | 47 | 1012.0 |
| 20260906014021 | 31 | 155 | 1.6 | 3.2 | 0.00 | 0.00 | 0.00 | 46 | 1012.0 |
| 20260906013516 | 31 | 156 | 1.6 | 3.2 | 0.00 | 0.00 | 0.00 | 45 | 1012.0 |
| 20260906013011 | 32 | 128 | 3.2 | 4.8 | 0.00 | 0.00 | 0.00 | 44 | 1012.0 |
| 20260906012507 | 32 | 123 | 3.2 | 4.8 | 0.00 | 0.00 | 0.00 | 44 | 1011.7 |
| 20260906012005 | 32 | 123 | 4.8 | 4.8 | 0.00 | 0.00 | 0.00 | 44 | 1011.8 |
| 20260906011502 | 32 | 130 | 4.8 | 6.4 | 0.00 | 0.00 | 0.00 | 43 | 1011.7 |
| 20260906010956 | 32 | 122 | 4.8 | 4.8 | 0.00 | 0.00 | 0.00 | 43 | 1011.6 |
| 20260906010452 | 32 | 135 | 3.2 | 6.4 | 0.00 | 0.00 | 0.00 | 42 | 1011.7 |
| 20260906005948 | 33 | 119 | 4.8 | 6.4 | 0.00 | 0.00 | 0.00 | 42 | 1011.6 |
| 20260906005447 | 33 | 127 | 4.8 | 6.4 | 0.00 | 0.00 | 0.00 | 41 | 1011.5 |
| 20260906004945 | 33 | 133 | 4.8 | 6.4 | 0.00 | 0.00 | 0.00 | 40 | 1011.7 |
| 20260906004440 | 33 | 126 | 3.2 | 6.4 | 0.00 | 0.00 | 0.00 | 39 | 1011.6 |
| 20260906003936 | 34 | 130 | 4.8 | 6.4 | 0.00 | 0.00 | 0.00 | 39 | 1011.6 |
| 20260906003436 | 34 | 134 | 6.4 | 6.4 | 0.00 | 0.00 | 0.00 | 38 | 1011.7 |
| 20260906002931 | 35 | 135 | 9.7 | 9.7 | 0.00 | 0.00 | 0.00 | 38 | 1011.6 |
| 20260906002431 | 35 | 140 | 4.8 | 8.0 | 0.00 | 0.00 | 0.00 | 38 | 1011.6 |
| 20260906001926 | 35 | 134 | 6.4 | 9.7 | 0.00 | 0.00 | 0.00 | 37 | 1011.6 |
| 20260906001422 | 35 | 127 | 11.3 | 17.7 | 0.00 | 0.00 | 0.00 | 37 | 1011.4 |
| 20260906000917 | 35 | 126 | 9.7 | 17.7 | 0.00 | 0.00 | 0.00 | 36 | 1011.3 |
| 20260906000412 | 35 | 144 | 6.4 | 9.7 | 0.00 | 0.00 | 0.00 | 36 | 1011.3 |
| 20260905235907 | 35 | 127 | 12.9 | 14.5 | 0.00 | 0.00 | 0.00 | 36 | 1011.4 |
| 20260905235401 | 36 | 119 | 6.4 | 11.3 | 0.00 | 0.00 | 0.00 | 35 | 1011.3 |
| 20260905234856 | 36 | 134 | 9.7 | 16.1 | 0.00 | 0.00 | 0.00 | 35 | 1011.1 |
| 20260905234351 | 36 | 137 | 6.4 | 9.7 | 0.00 | 0.00 | 0.00 | 35 | 1011.4 |
| 20260905233846 | 36 | 126 | 9.7 | 14.5 | 0.00 | 0.00 | 0.00 | 35 | 1011.4 |
| 20260905233341 | 36 | 101 | 6.4 | 14.5 | 0.00 | 0.00 | 0.00 | 35 | 1011.3 |
| 20260905232840 | 36 | 150 | 9.7 | 12.9 | 0.00 | 0.00 | 0.00 | 34 | 1011.1 |
| 20260905232337 | 36 | 149 | 6.4 | 9.7 | 0.00 | 0.00 | 0.00 | 34 | 1011.0 |
| 20260905231832 | 36 | 132 | 11.3 | 14.5 | 0.00 | 0.00 | 0.00 | 33 | 1011.3 |
| 20260905231327 | 36 | 114 | 6.4 | 20.9 | 0.00 | 0.00 | 0.00 | 33 | 1011.0 |
| 20260905230824 | 36 | 145 | 8.0 | 9.7 | 0.00 | 0.00 | 0.00 | 34 | 1010.9 |
| 20260905230321 | 36 | 110 | 11.3 | 19.3 | 0.00 | 0.00 | 0.00 | 33 | 1011.3 |
| 20260905225821 | 36 | 164 | 3.2 | 17.7 | 0.00 | 0.00 | 0.00 | 34 | 1011.1 |
| 20260905225316 | 36 | 140 | 19.3 | 20.9 | 0.00 | 0.00 | 0.00 | 33 | 1011.0 |
| 20260905224816 | 36 | 125 | 8.0 | 17.7 | 0.00 | 0.00 | 0.00 | 33 | 1011.4 |
| 20260905224311 | 36 | 110 | 8.0 | 19.3 | 0.00 | 0.00 | 0.00 | 33 | 1010.8 |
| 20260905223806 | 36 | 78 | 9.7 | 14.5 | 0.00 | 0.00 | 0.00 | 32 | 1011.1 |
| 20260905223304 | 36 | 113 | 8.0 | 12.9 | 0.00 | 0.00 | 0.00 | 33 | 1011.0 |
| 20260905222759 | 37 | 111 | 8.0 | 16.1 | 0.00 | 0.00 | 0.00 | 33 | 1011.3 |
| 20260905222257 | 37 | 114 | 4.8 | 11.3 | 0.00 | 0.00 | 0.00 | 33 | 1011.1 |
| 20260905221754 | 36 | 149 | 8.0 | 16.1 | 0.00 | 0.00 | 0.00 | 34 | 1011.5 |